createdAt,value
2018-09-06T00:00:30.199Z,995.29
2018-09-06T00:01:35.544Z,995.27
2018-09-06T00:02:41.387Z,995.27
2018-09-06T00:03:48.210Z,995.28
2018-09-06T00:04:54.120Z,995.26
2018-09-06T00:06:00.915Z,995.29
2018-09-06T00:07:07.271Z,995.27
2018-09-06T00:08:13.580Z,995.26
2018-09-06T00:09:19.919Z,995.19
2018-09-06T00:10:26.244Z,995.26
2018-09-06T00:11:32.592Z,995.22
2018-09-06T00:12:38.926Z,995.21
2018-09-06T00:13:45.265Z,995.20
2018-09-06T00:14:51.596Z,995.16
2018-09-06T00:15:57.932Z,995.16
2018-09-06T00:17:04.260Z,995.15
2018-09-06T00:18:10.107Z,995.13
2018-09-06T00:19:16.943Z,995.13
2018-09-06T00:20:23.283Z,995.13
2018-09-06T00:21:29.613Z,995.08
2018-09-06T00:22:35.937Z,995.08
2018-09-06T00:23:41.784Z,995.11
2018-09-06T00:24:48.613Z,995.11
2018-09-06T00:25:54.958Z,995.13
2018-09-06T00:27:01.296Z,995.11
2018-09-06T00:28:07.626Z,995.11
2018-09-06T00:29:13.441Z,995.14
2018-09-06T00:30:20.286Z,995.13
2018-09-06T00:31:26.620Z,995.08
2018-09-06T00:32:32.929Z,995.07
2018-09-06T00:33:38.772Z,995.13
2018-09-06T00:34:45.610Z,995.07
2018-09-06T00:35:51.930Z,995.04
2018-09-06T00:36:58.264Z,995.04
2018-09-06T00:38:04.585Z,995.05
2018-09-06T00:39:10.907Z,995.03
2018-09-06T00:40:17.265Z,994.99
2018-09-06T00:41:23.607Z,995.02
2018-09-06T00:42:29.893Z,995.03
2018-09-06T00:43:36.229Z,995.05
2018-09-06T00:44:42.551Z,995.00
2018-09-06T00:45:48.885Z,995.05
2018-09-06T00:46:55.227Z,995.03
2018-09-06T00:48:01.543Z,995.03
2018-09-06T00:49:07.856Z,995.03
2018-09-06T00:50:14.188Z,995.04
2018-09-06T00:51:20.048Z,994.99
2018-09-06T00:52:26.856Z,995.04
2018-09-06T00:53:33.279Z,995.05
2018-09-06T00:54:40.508Z,994.99
2018-09-06T00:55:45.860Z,995.00
2018-09-06T00:56:52.180Z,994.94
2018-09-06T00:57:58.003Z,994.96
2018-09-06T00:59:04.825Z,994.97
2018-09-06T01:00:11.283Z,994.96
2018-09-06T01:01:17.491Z,994.96
2018-09-06T01:02:23.816Z,994.94
2018-09-06T01:03:30.140Z,994.97
2018-09-06T01:04:36.463Z,994.94
2018-09-06T01:05:42.803Z,994.94
2018-09-06T01:06:49.123Z,994.94
2018-09-06T01:07:55.439Z,994.96
2018-09-06T01:09:01.260Z,994.91
2018-09-06T01:10:08.074Z,994.93
2018-09-06T01:11:14.400Z,994.91
2018-09-06T01:12:20.733Z,994.92
2018-09-06T01:13:27.063Z,994.89
2018-09-06T01:14:33.383Z,994.91
2018-09-06T01:15:39.699Z,994.86
2018-09-06T01:16:46.035Z,994.86
2018-09-06T01:17:52.338Z,994.87
2018-09-06T01:18:58.659Z,994.84
2018-09-06T01:20:04.976Z,994.86
2018-09-06T01:21:11.294Z,994.86
2018-09-06T01:22:17.655Z,994.80
2018-09-06T01:23:23.942Z,994.82
2018-09-06T01:24:30.245Z,994.81
2018-09-06T01:25:36.580Z,994.83
2018-09-06T01:26:42.900Z,994.76
2018-09-06T01:27:49.278Z,994.79
2018-09-06T01:28:55.535Z,994.75
2018-09-06T01:30:01.360Z,994.74
2018-09-06T01:31:07.669Z,994.78
2018-09-06T01:32:14.497Z,994.76
2018-09-06T01:33:20.803Z,994.73
2018-09-06T01:34:26.627Z,994.77
2018-09-06T01:35:33.449Z,994.75
2018-09-06T01:36:39.745Z,994.75
2018-09-06T01:37:46.082Z,994.74
2018-09-06T01:38:52.389Z,994.79
2018-09-06T01:39:58.700Z,994.75
2018-09-06T01:41:05.031Z,994.71
2018-09-06T01:42:11.355Z,994.73
2018-09-06T01:43:17.268Z,994.69
2018-09-06T01:44:23.989Z,994.69
2018-09-06T01:45:30.303Z,994.67
2018-09-06T01:46:36.619Z,994.68
2018-09-06T01:47:42.952Z,994.75
2018-09-06T01:48:49.256Z,994.73
2018-09-06T01:49:55.573Z,994.73
2018-09-06T01:51:01.883Z,994.77
2018-09-06T01:52:08.219Z,994.75
2018-09-06T01:53:14.528Z,994.75
2018-09-06T01:54:20.838Z,994.76
2018-09-06T01:55:27.153Z,994.74
2018-09-06T01:56:33.473Z,994.74
2018-09-06T01:57:39.791Z,994.73
2018-09-06T01:58:46.090Z,994.79
2018-09-06T01:59:52.412Z,994.73
2018-09-06T02:00:58.728Z,994.76
2018-09-06T02:02:05.045Z,994.76
2018-09-06T02:03:11.371Z,994.79
2018-09-06T02:04:17.677Z,994.75
2018-09-06T02:05:23.980Z,994.71
2018-09-06T02:06:30.308Z,994.71
2018-09-06T02:07:36.630Z,994.67
2018-09-06T02:08:42.941Z,994.71
2018-09-06T02:09:49.265Z,994.69
2018-09-06T02:10:55.560Z,994.68
2018-09-06T02:12:01.385Z,994.71
2018-09-06T02:13:08.199Z,994.69
2018-09-06T02:14:14.513Z,994.64
2018-09-06T02:15:20.829Z,994.67
2018-09-06T02:16:27.135Z,994.64
2018-09-06T02:17:33.462Z,994.63
2018-09-06T02:18:40.760Z,994.62
2018-09-06T02:19:46.090Z,994.61
2018-09-06T02:20:52.403Z,994.66
2018-09-06T02:21:58.710Z,994.66
2018-09-06T02:23:05.035Z,994.63
2018-09-06T02:24:11.334Z,994.63
2018-09-06T02:25:17.648Z,994.63
2018-09-06T02:26:23.981Z,994.65
2018-09-06T02:27:30.287Z,994.66
2018-09-06T02:28:37.587Z,994.70
2018-09-06T02:29:42.925Z,994.72
2018-09-06T02:30:49.271Z,994.71
2018-09-06T02:31:55.533Z,994.72
2018-09-06T02:33:01.858Z,994.71
2018-09-06T02:34:07.670Z,994.71
2018-09-06T02:35:13.974Z,994.72
2018-09-06T02:36:21.777Z,994.68
2018-09-06T02:37:27.115Z,994.67
2018-09-06T02:38:33.413Z,994.68
2018-09-06T02:39:39.724Z,994.66
2018-09-06T02:40:46.037Z,994.62
2018-09-06T02:41:52.350Z,994.62
2018-09-06T02:42:58.656Z,994.62
2018-09-06T02:44:04.979Z,994.59
2018-09-06T02:45:10.790Z,994.60
2018-09-06T02:46:17.610Z,994.56
2018-09-06T02:47:23.920Z,994.56
2018-09-06T02:48:30.241Z,994.53
2018-09-06T02:49:36.545Z,994.54
2018-09-06T02:50:42.852Z,994.49
2018-09-06T02:51:49.266Z,994.53
2018-09-06T02:52:55.494Z,994.50
2018-09-06T02:54:01.851Z,994.52
2018-09-06T02:55:08.116Z,994.47
2018-09-06T02:56:14.418Z,994.53
2018-09-06T02:57:20.737Z,994.48
2018-09-06T02:58:27.055Z,994.46
2018-09-06T02:59:33.371Z,994.38
2018-09-06T03:00:39.683Z,994.46
2018-09-06T03:01:45.981Z,994.43
2018-09-06T03:02:52.303Z,994.45
2018-09-06T03:03:58.619Z,994.45
2018-09-06T03:05:04.932Z,994.43
2018-09-06T03:06:11.267Z,994.42
2018-09-06T03:07:17.554Z,994.42
2018-09-06T03:08:23.876Z,994.39
2018-09-06T03:09:30.166Z,994.35
2018-09-06T03:10:36.492Z,994.36
2018-09-06T03:11:42.799Z,994.37
2018-09-06T03:12:49.110Z,994.41
2018-09-06T03:13:55.430Z,994.38
2018-09-06T03:15:01.750Z,994.41
2018-09-06T03:16:07.545Z,994.37
2018-09-06T03:17:14.349Z,994.34
2018-09-06T03:18:20.686Z,994.33
2018-09-06T03:19:26.959Z,994.30
2018-09-06T03:20:33.287Z,994.32
2018-09-06T03:21:39.590Z,994.30
2018-09-06T03:22:45.890Z,994.30
2018-09-06T03:23:52.253Z,994.26
2018-09-06T03:24:58.520Z,994.30
2018-09-06T03:26:04.825Z,994.26
2018-09-06T03:27:11.136Z,994.25
2018-09-06T03:28:17.446Z,994.26
2018-09-06T03:29:23.762Z,994.21
2018-09-06T03:30:30.055Z,994.23
2018-09-06T03:31:35.858Z,994.23
2018-09-06T03:32:42.657Z,994.23
2018-09-06T03:33:48.977Z,994.23
2018-09-06T03:34:55.264Z,994.20
2018-09-06T03:36:01.615Z,994.25
2018-09-06T03:37:07.873Z,994.24
2018-09-06T03:38:14.197Z,994.26
2018-09-06T03:39:20.488Z,994.24
2018-09-06T03:40:26.807Z,994.22
2018-09-06T03:41:33.096Z,994.23
2018-09-06T03:42:39.396Z,994.25
2018-09-06T03:43:45.714Z,994.23
2018-09-06T03:44:52.011Z,994.19
2018-09-06T03:45:58.315Z,994.19
2018-09-06T03:47:04.614Z,994.19
2018-09-06T03:48:10.436Z,994.18
2018-09-06T03:49:17.230Z,994.18
2018-09-06T03:50:23.518Z,994.16
2018-09-06T03:51:30.128Z,994.16
2018-09-06T03:52:36.135Z,994.21
2018-09-06T03:53:42.446Z,994.20
2018-09-06T03:54:48.739Z,994.22
2018-09-06T03:55:55.047Z,994.21
2018-09-06T03:57:00.850Z,994.19
2018-09-06T03:58:07.153Z,994.19
2018-09-06T03:59:13.955Z,994.22
2018-09-06T04:00:21.271Z,994.25
2018-09-06T04:01:26.556Z,994.23
2018-09-06T04:02:32.861Z,994.25
2018-09-06T04:03:39.151Z,994.25
2018-09-06T04:04:45.466Z,994.21
2018-09-06T04:05:51.761Z,994.19
2018-09-06T04:06:57.550Z,994.19
2018-09-06T04:08:04.347Z,994.19
2018-09-06T04:09:10.150Z,994.18
2018-09-06T04:10:16.939Z,994.18
2018-09-06T04:11:23.275Z,994.13
2018-09-06T04:12:29.040Z,994.19
2018-09-06T04:13:35.354Z,994.17
2018-09-06T04:14:42.160Z,994.18
2018-09-06T04:15:48.432Z,994.18
2018-09-06T04:16:54.726Z,994.20
2018-09-06T04:18:01.059Z,994.16
2018-09-06T04:19:07.336Z,994.20
2018-09-06T04:20:13.616Z,994.19
2018-09-06T04:21:19.918Z,994.17
2018-09-06T04:22:25.706Z,994.15
2018-09-06T04:23:32.509Z,994.19
2018-09-06T04:24:38.787Z,994.21
2018-09-06T04:25:45.081Z,994.22
2018-09-06T04:26:51.379Z,994.29
2018-09-06T04:27:57.665Z,994.25
2018-09-06T04:29:03.992Z,994.30
2018-09-06T04:30:10.263Z,994.29
2018-09-06T04:31:16.574Z,994.28
2018-09-06T04:32:22.861Z,994.29
2018-09-06T04:33:29.150Z,994.28
2018-09-06T04:34:34.959Z,994.29
2018-09-06T04:35:41.751Z,994.27
2018-09-06T04:36:48.067Z,994.24
2018-09-06T04:37:54.345Z,994.26
2018-09-06T04:39:00.663Z,994.26
2018-09-06T04:40:06.952Z,994.23
2018-09-06T04:41:13.271Z,994.19
2018-09-06T04:42:19.537Z,994.17
2018-09-06T04:43:25.335Z,994.20
2018-09-06T04:44:31.647Z,994.24
2018-09-06T04:45:38.424Z,994.23
2018-09-06T04:46:44.747Z,994.21
2018-09-06T04:47:51.036Z,994.25
2018-09-06T04:48:56.841Z,994.21
2018-09-06T04:50:03.635Z,994.26
2018-09-06T04:51:09.944Z,994.23
2018-09-06T04:52:15.746Z,994.23
2018-09-06T04:53:22.538Z,994.25
2018-09-06T04:54:28.840Z,994.24
2018-09-06T04:55:35.131Z,994.23
2018-09-06T04:56:41.435Z,994.22
2018-09-06T04:57:47.728Z,994.20
2018-09-06T04:58:54.058Z,994.23
2018-09-06T04:59:59.836Z,994.25
2018-09-06T05:01:06.639Z,994.28
2018-09-06T05:02:12.974Z,994.25
2018-09-06T05:03:19.267Z,994.29
2018-09-06T05:04:25.640Z,994.26
2018-09-06T05:05:31.869Z,994.30
2018-09-06T05:06:37.777Z,994.29
2018-09-06T05:07:44.465Z,994.28
2018-09-06T05:08:50.265Z,994.26
2018-09-06T05:09:57.074Z,994.24
2018-09-06T05:11:03.385Z,994.22
2018-09-06T05:12:09.701Z,994.22
2018-09-06T05:13:16.008Z,994.24
2018-09-06T05:14:23.336Z,994.27
2018-09-06T05:15:28.147Z,994.28
2018-09-06T05:16:34.959Z,994.27
2018-09-06T05:17:40.766Z,994.26
2018-09-06T05:18:47.569Z,994.25
2018-09-06T05:19:53.889Z,994.25
2018-09-06T05:20:59.709Z,994.21
2018-09-06T05:22:06.647Z,994.20
2018-09-06T05:23:12.344Z,994.24
2018-09-06T05:24:18.651Z,994.20
2018-09-06T05:25:24.976Z,994.24
2018-09-06T05:26:31.292Z,994.24
2018-09-06T05:27:38.103Z,994.23
2018-09-06T05:28:44.436Z,994.22
2018-09-06T05:29:50.758Z,994.25
2018-09-06T05:30:57.076Z,994.20
2018-09-06T05:32:03.406Z,994.22
2018-09-06T05:33:09.731Z,994.20
2018-09-06T05:34:16.047Z,994.21
2018-09-06T05:35:21.890Z,994.23
2018-09-06T05:36:28.753Z,994.30
2018-09-06T05:37:35.038Z,994.28
2018-09-06T05:38:41.367Z,994.31
2018-09-06T05:39:47.701Z,994.30
2018-09-06T05:40:54.038Z,994.28
2018-09-06T05:42:00.366Z,994.27
2018-09-06T05:43:06.686Z,994.27
2018-09-06T05:44:13.042Z,994.25
2018-09-06T05:45:19.378Z,994.22
2018-09-06T05:46:25.715Z,994.26
2018-09-06T05:47:32.124Z,994.26
2018-09-06T05:48:38.382Z,994.24
2018-09-06T05:49:44.248Z,994.24
2018-09-06T05:50:51.067Z,994.21
2018-09-06T05:51:57.440Z,994.20
2018-09-06T05:53:03.771Z,994.16
2018-09-06T05:54:10.103Z,994.14
2018-09-06T05:55:15.972Z,994.16
2018-09-06T05:56:22.328Z,994.19
2018-09-06T05:57:29.270Z,994.15
2018-09-06T05:58:35.522Z,994.11
2018-09-06T05:59:41.916Z,994.17
2018-09-06T06:00:47.749Z,994.18
2018-09-06T06:01:54.601Z,994.16
2018-09-06T06:03:00.968Z,994.16
2018-09-06T06:04:07.335Z,994.14
2018-09-06T06:05:13.734Z,994.15
2018-09-06T06:06:20.065Z,994.13
2018-09-06T06:07:26.443Z,994.10
2018-09-06T06:08:32.818Z,994.09
2018-09-06T06:09:39.274Z,994.10
2018-09-06T06:10:45.570Z,994.14
2018-09-06T06:11:52.013Z,994.11
2018-09-06T06:12:58.317Z,994.09
2018-09-06T06:14:04.722Z,994.14
2018-09-06T06:15:11.120Z,994.16
2018-09-06T06:16:17.474Z,994.15
2018-09-06T06:17:23.882Z,994.13
2018-09-06T06:18:30.273Z,994.12
2018-09-06T06:19:37.292Z,994.11
2018-09-06T06:20:43.061Z,994.12
2018-09-06T06:21:49.462Z,994.14
2018-09-06T06:22:55.868Z,994.15
2018-09-06T06:24:02.274Z,994.16
2018-09-06T06:25:08.701Z,994.15
2018-09-06T06:26:15.086Z,994.14
2018-09-06T06:27:21.015Z,994.13
2018-09-06T06:28:27.930Z,994.12
2018-09-06T06:29:34.340Z,994.14
2018-09-06T06:30:41.785Z,994.13
2018-09-06T06:31:47.311Z,994.09
2018-09-06T06:32:53.132Z,994.08
2018-09-06T06:34:00.060Z,994.12
2018-09-06T06:35:06.499Z,994.09
2018-09-06T06:36:12.914Z,994.08
2018-09-06T06:37:18.860Z,994.06
2018-09-06T06:38:25.796Z,994.06
2018-09-06T06:39:32.233Z,994.06
2018-09-06T06:40:38.705Z,994.10
2018-09-06T06:41:45.110Z,994.04
2018-09-06T06:42:51.557Z,994.06
2018-09-06T06:43:57.509Z,994.02
2018-09-06T06:45:04.473Z,994.01
2018-09-06T06:46:10.909Z,994.01
2018-09-06T06:47:17.385Z,994.01
2018-09-06T06:48:23.844Z,994.02
2018-09-06T06:49:30.303Z,994.00
2018-09-06T06:50:37.758Z,993.98
2018-09-06T06:51:43.582Z,994.01
2018-09-06T06:52:49.702Z,994.01
2018-09-06T06:53:56.169Z,994.03
2018-09-06T06:55:02.671Z,994.06
2018-09-06T06:56:09.134Z,994.08
2018-09-06T06:57:15.608Z,994.07
2018-09-06T06:58:22.090Z,994.03
2018-09-06T06:59:28.587Z,994.04
2018-09-06T07:00:35.078Z,994.08
2018-09-06T07:01:41.067Z,994.07
2018-09-06T07:02:48.044Z,994.06
2018-09-06T07:03:54.051Z,994.05
2018-09-06T07:05:01.037Z,994.05
2018-09-06T07:06:07.548Z,994.06
2018-09-06T07:07:14.081Z,994.07
2018-09-06T07:08:20.540Z,994.04
2018-09-06T07:09:27.041Z,994.01
2018-09-06T07:10:33.543Z,994.05
2018-09-06T07:11:40.040Z,994.03
2018-09-06T07:12:46.066Z,994.01
2018-09-06T07:13:53.073Z,994.03
2018-09-06T07:14:59.085Z,994.01
2018-09-06T07:16:06.119Z,994.05
2018-09-06T07:17:12.621Z,994.00
2018-09-06T07:18:19.223Z,994.00
2018-09-06T07:19:25.701Z,993.99
2018-09-06T07:20:31.734Z,993.99
2018-09-06T07:21:38.753Z,993.97
2018-09-06T07:22:45.294Z,993.96
2018-09-06T07:23:51.847Z,993.92
2018-09-06T07:24:58.401Z,993.93
2018-09-06T07:26:04.953Z,993.87
2018-09-06T07:27:11.504Z,993.87
2018-09-06T07:28:18.071Z,993.83
2018-09-06T07:29:24.643Z,993.81
2018-09-06T07:30:31.287Z,993.84
2018-09-06T07:31:37.791Z,993.79
2018-09-06T07:32:44.371Z,993.76
2018-09-06T07:33:50.960Z,993.80
2018-09-06T07:34:57.554Z,993.74
2018-09-06T07:36:04.143Z,993.78
2018-09-06T07:37:10.754Z,993.73
2018-09-06T07:38:17.964Z,993.77
2018-09-06T07:39:23.960Z,993.77
2018-09-06T07:40:30.560Z,993.73
2018-09-06T07:41:37.278Z,993.71
2018-09-06T07:42:43.295Z,993.69
2018-09-06T07:43:50.374Z,993.66
2018-09-06T07:44:56.482Z,993.63
2018-09-06T07:46:03.584Z,993.66
2018-09-06T07:47:10.196Z,993.64
2018-09-06T07:48:16.790Z,993.63
2018-09-06T07:49:23.382Z,993.60
2018-09-06T07:50:29.515Z,993.61
2018-09-06T07:51:36.122Z,993.63
2018-09-06T07:52:42.689Z,993.62
2018-09-06T07:53:49.787Z,993.62
2018-09-06T07:54:56.371Z,993.65
2018-09-06T07:56:02.991Z,993.61
2018-09-06T07:57:09.082Z,993.60
2018-09-06T07:58:15.877Z,993.59
2018-09-06T07:59:22.791Z,993.62
2018-09-06T08:00:29.393Z,993.61
2018-09-06T08:01:36.029Z,993.59
2018-09-06T08:02:42.633Z,993.62
2018-09-06T08:03:49.261Z,993.59
2018-09-06T08:04:55.875Z,993.57
2018-09-06T08:06:02.484Z,993.59
2018-09-06T08:07:09.125Z,993.61
2018-09-06T08:08:15.749Z,993.58
2018-09-06T08:09:22.379Z,993.58
2018-09-06T08:10:29.034Z,993.58
2018-09-06T08:11:35.685Z,993.62
2018-09-06T08:12:42.312Z,993.63
2018-09-06T08:13:48.467Z,993.66
2018-09-06T08:14:55.619Z,993.64
2018-09-06T08:16:02.273Z,993.67
2018-09-06T08:17:08.440Z,993.68
2018-09-06T08:18:15.599Z,993.66
2018-09-06T08:19:22.274Z,993.67
2018-09-06T08:20:28.933Z,993.67
2018-09-06T08:21:35.609Z,993.69
2018-09-06T08:22:42.289Z,993.68
2018-09-06T08:23:48.975Z,993.68
2018-09-06T08:24:55.658Z,993.64
2018-09-06T08:26:02.362Z,993.64
2018-09-06T08:27:09.074Z,993.65
2018-09-06T08:28:15.791Z,993.61
2018-09-06T08:29:22.498Z,993.59
2018-09-06T08:30:29.293Z,993.54
2018-09-06T08:31:35.954Z,993.50
2018-09-06T08:32:42.681Z,993.51
2018-09-06T08:33:49.423Z,993.49
2018-09-06T08:34:56.159Z,993.49
2018-09-06T08:36:02.911Z,993.47
2018-09-06T08:37:09.685Z,993.49
2018-09-06T08:38:16.404Z,993.46
2018-09-06T08:39:23.152Z,993.45
2018-09-06T08:40:29.898Z,993.49
2018-09-06T08:41:36.670Z,993.47
2018-09-06T08:42:42.923Z,993.48
2018-09-06T08:43:50.170Z,993.45
2018-09-06T08:44:56.932Z,993.45
2018-09-06T08:46:03.728Z,993.43
2018-09-06T08:47:10.459Z,993.45
2018-09-06T08:48:16.747Z,993.42
2018-09-06T08:49:24.024Z,993.43
2018-09-06T08:50:30.318Z,993.42
2018-09-06T08:51:37.628Z,993.36
2018-09-06T08:52:44.431Z,993.40
2018-09-06T08:53:51.266Z,993.41
2018-09-06T08:54:57.565Z,993.46
2018-09-06T08:56:04.886Z,993.36
2018-09-06T08:57:11.719Z,993.40
2018-09-06T08:58:18.540Z,993.39
2018-09-06T08:59:25.368Z,993.39
2018-09-06T09:00:32.190Z,993.38
2018-09-06T09:01:38.537Z,993.35
2018-09-06T09:02:45.508Z,993.31
2018-09-06T09:03:52.709Z,993.33
2018-09-06T09:04:59.542Z,993.35
2018-09-06T09:06:06.522Z,993.31
2018-09-06T09:07:13.274Z,993.28
2018-09-06T09:08:20.083Z,993.32
2018-09-06T09:09:26.438Z,993.28
2018-09-06T09:10:33.291Z,993.27
2018-09-06T09:11:40.653Z,993.17
2018-09-06T09:12:47.501Z,993.18
2018-09-06T09:13:54.371Z,993.21
2018-09-06T09:15:01.275Z,993.19
2018-09-06T09:16:08.707Z,993.21
2018-09-06T09:17:15.013Z,993.18
2018-09-06T09:18:21.931Z,993.21
2018-09-06T09:19:28.748Z,993.18
2018-09-06T09:20:35.637Z,993.16
2018-09-06T09:21:42.603Z,993.11
2018-09-06T09:22:49.413Z,993.11
2018-09-06T09:23:56.278Z,993.06
2018-09-06T09:25:03.283Z,993.06
2018-09-06T09:26:10.051Z,993.06
2018-09-06T09:27:16.959Z,993.08
2018-09-06T09:28:23.854Z,993.08
2018-09-06T09:29:30.758Z,993.10
2018-09-06T09:30:37.686Z,993.08
2018-09-06T09:31:44.583Z,993.06
2018-09-06T09:32:51.487Z,993.04
2018-09-06T09:33:57.909Z,993.05
2018-09-06T09:35:05.330Z,993.03
2018-09-06T09:36:12.247Z,993.05
2018-09-06T09:37:19.275Z,992.99
2018-09-06T09:38:26.089Z,993.01
2018-09-06T09:39:33.009Z,992.96
2018-09-06T09:40:39.420Z,992.97
2018-09-06T09:41:46.853Z,992.93
2018-09-06T09:42:53.258Z,992.93
2018-09-06T09:44:00.656Z,992.91
2018-09-06T09:45:07.083Z,992.88
2018-09-06T09:49:35.362Z,992.89
2018-09-06T09:52:55.951Z,992.86
2018-09-06T09:54:03.363Z,992.82
2018-09-06T09:55:09.775Z,992.80
2018-09-06T09:56:16.700Z,992.78
2018-09-06T09:57:23.613Z,992.79
2018-09-06T09:58:30.526Z,992.78
2018-09-06T09:59:37.414Z,992.74
2018-09-06T10:00:44.333Z,992.72
2018-09-06T10:01:51.309Z,992.74
2018-09-06T10:02:57.640Z,992.71
2018-09-06T10:04:05.025Z,992.74
2018-09-06T10:05:11.912Z,992.75
2018-09-06T10:06:18.803Z,992.73
2018-09-06T10:07:25.657Z,992.76
2018-09-06T10:08:32.540Z,992.74
2018-09-06T10:09:39.364Z,992.74
2018-09-06T10:10:46.230Z,992.77
2018-09-06T10:11:53.056Z,992.81
2018-09-06T10:12:59.884Z,992.77
2018-09-06T10:14:06.709Z,992.84
2018-09-06T10:15:13.518Z,992.84
2018-09-06T10:16:20.307Z,992.85
2018-09-06T10:17:27.117Z,992.87
2018-09-06T10:18:33.894Z,992.89
2018-09-06T10:19:40.655Z,992.99
2018-09-06T10:20:47.389Z,992.99
2018-09-06T10:21:55.138Z,993.00
2018-09-06T10:23:00.900Z,993.02
2018-09-06T10:24:07.621Z,993.05
2018-09-06T10:25:14.328Z,993.00
2018-09-06T10:26:21.048Z,993.01
2018-09-06T10:27:27.758Z,993.03
2018-09-06T10:28:34.442Z,993.05
2018-09-06T10:29:41.160Z,993.06
2018-09-06T10:30:47.844Z,993.09
2018-09-06T10:31:54.528Z,993.11
2018-09-06T10:33:01.282Z,993.12
2018-09-06T10:34:07.927Z,993.13
2018-09-06T10:35:14.664Z,993.16
2018-09-06T10:36:21.320Z,993.16
2018-09-06T10:37:28.014Z,993.16
2018-09-06T10:38:34.709Z,993.17
2018-09-06T10:39:41.438Z,993.20
2018-09-06T10:40:49.147Z,993.22
2018-09-06T10:41:54.947Z,993.23
2018-09-06T10:43:01.559Z,993.24
2018-09-06T10:44:08.274Z,993.22
2018-09-06T10:45:14.990Z,993.19
2018-09-06T10:46:21.727Z,993.16
2018-09-06T10:47:28.473Z,993.23
2018-09-06T10:48:35.329Z,993.12
2018-09-06T10:49:42.934Z,993.14
2018-09-06T10:50:48.691Z,993.09
2018-09-06T10:51:56.065Z,993.07
2018-09-06T10:53:02.220Z,993.07
2018-09-06T10:54:09.996Z,993.00
2018-09-06T10:55:15.771Z,992.99
2018-09-06T10:56:22.559Z,992.95
2018-09-06T10:57:29.365Z,992.94
2018-09-06T10:58:37.273Z,992.95
2018-09-06T10:59:42.991Z,992.97
2018-09-06T11:00:49.899Z,992.96
2018-09-06T11:01:56.603Z,992.94
2018-09-06T11:03:03.424Z,992.96
2018-09-06T11:04:10.238Z,992.86
2018-09-06T11:05:17.068Z,992.83
2018-09-06T11:06:23.894Z,992.87
2018-09-06T11:07:30.240Z,992.85
2018-09-06T11:08:37.573Z,992.79
2018-09-06T11:09:44.415Z,992.78
2018-09-06T11:10:51.291Z,992.78
2018-09-06T11:11:58.127Z,992.75
2018-09-06T11:13:04.984Z,992.71
2018-09-06T11:14:11.843Z,992.76
2018-09-06T11:15:18.717Z,992.74
2018-09-06T11:16:25.602Z,992.70
2018-09-06T11:17:32.487Z,992.71
2018-09-06T11:18:39.377Z,992.69
2018-09-06T11:19:46.279Z,992.74
2018-09-06T11:20:53.276Z,992.71
2018-09-06T11:22:00.310Z,992.70
2018-09-06T11:23:07.009Z,992.68
2018-09-06T11:24:13.911Z,992.64
2018-09-06T11:25:20.821Z,992.65
2018-09-06T11:26:28.722Z,992.62
2018-09-06T11:27:34.701Z,992.63
2018-09-06T11:28:41.537Z,992.62
2018-09-06T11:29:48.425Z,992.64
2018-09-06T11:30:55.318Z,992.60
2018-09-06T11:32:02.189Z,992.59
2018-09-06T11:33:09.077Z,992.51
2018-09-06T11:34:15.935Z,992.43
2018-09-06T11:35:22.782Z,992.46
2018-09-06T11:36:29.632Z,992.39
2018-09-06T11:37:36.468Z,992.40
2018-09-06T11:38:43.298Z,992.36
2018-09-06T11:39:50.138Z,992.37
2018-09-06T11:40:56.972Z,992.30
2018-09-06T11:42:03.775Z,992.29
2018-09-06T11:43:10.591Z,992.31
2018-09-06T11:44:17.409Z,992.24
2018-09-06T11:45:24.221Z,992.17
2018-09-06T11:46:31.043Z,992.18
2018-09-06T11:47:37.852Z,992.17
2018-09-06T11:48:44.675Z,992.13
2018-09-06T11:49:51.498Z,992.17
2018-09-06T11:50:58.340Z,992.14
2018-09-06T11:52:05.123Z,992.16
2018-09-06T11:53:11.943Z,992.18
2018-09-06T11:54:18.757Z,992.21
2018-09-06T11:55:25.573Z,992.21
2018-09-06T11:56:32.368Z,992.17
2018-09-06T11:57:39.285Z,992.18
2018-09-06T11:58:46.019Z,992.15
2018-09-06T11:59:52.824Z,992.23
2018-09-06T12:00:59.626Z,992.22
2018-09-06T12:02:06.468Z,992.18
2018-09-06T12:03:14.267Z,992.18
2018-09-06T12:04:21.046Z,992.18
2018-09-06T12:05:26.869Z,992.13
2018-09-06T12:06:33.664Z,992.14
2018-09-06T12:07:40.482Z,992.14
2018-09-06T12:08:47.282Z,992.09
2018-09-06T12:09:54.087Z,992.06
2018-09-06T12:11:00.900Z,992.07
2018-09-06T12:12:07.712Z,992.04
2018-09-06T12:13:15.519Z,991.99
2018-09-06T12:14:21.327Z,992.02
2018-09-06T12:15:28.122Z,992.00
2018-09-06T12:16:34.931Z,991.98
2018-09-06T12:17:41.748Z,991.99
2018-09-06T12:18:48.548Z,991.99
2018-09-06T12:19:55.343Z,992.00
2018-09-06T12:21:02.148Z,992.06
2018-09-06T12:22:08.953Z,992.06
2018-09-06T12:23:15.758Z,992.08
2018-09-06T12:24:22.557Z,992.05
2018-09-06T12:25:29.355Z,992.02
2018-09-06T12:26:36.159Z,992.02
2018-09-06T12:27:42.948Z,992.03
2018-09-06T12:28:49.774Z,992.03
2018-09-06T12:29:56.576Z,992.01
2018-09-06T12:31:03.373Z,991.98
2018-09-06T12:32:10.162Z,992.01
2018-09-06T12:33:17.119Z,991.99
2018-09-06T12:34:23.764Z,991.99
2018-09-06T12:35:30.573Z,992.00
2018-09-06T12:36:37.359Z,992.00
2018-09-06T12:37:44.178Z,992.05
2018-09-06T12:38:50.981Z,992.02
2018-09-06T12:39:57.770Z,992.02
2018-09-06T12:41:04.602Z,991.97
2018-09-06T12:42:11.387Z,991.96
2018-09-06T12:43:18.219Z,991.91
2018-09-06T12:44:25.007Z,991.89
2018-09-06T12:45:31.821Z,991.85
2018-09-06T12:46:38.618Z,991.86
2018-09-06T12:47:45.423Z,991.85
2018-09-06T12:48:52.230Z,991.87
2018-09-06T12:49:59.037Z,991.85
2018-09-06T12:51:05.847Z,991.87
2018-09-06T12:53:19.502Z,991.86
2018-09-06T12:54:26.298Z,991.87
2018-09-06T12:55:33.129Z,991.90
2018-09-06T12:56:41.031Z,991.91
2018-09-06T12:57:47.767Z,991.91
2018-09-06T12:58:53.607Z,991.90
2018-09-06T13:00:01.419Z,991.88
2018-09-06T13:01:07.288Z,991.87
2018-09-06T13:02:14.096Z,991.82
2018-09-06T13:03:20.940Z,991.88
2018-09-06T13:04:27.801Z,991.84
2018-09-06T13:05:34.654Z,991.85
2018-09-06T13:06:41.520Z,991.85
2018-09-06T13:07:48.371Z,991.81
2018-09-06T13:08:55.279Z,991.77
2018-09-06T13:10:02.108Z,991.76
2018-09-06T13:11:08.986Z,991.76
2018-09-06T13:12:15.878Z,991.75
2018-09-06T13:13:22.770Z,991.71
2018-09-06T13:14:29.684Z,991.72
2018-09-06T13:15:36.578Z,991.75
2018-09-06T13:16:43.480Z,991.75
2018-09-06T13:17:50.382Z,991.78
2018-09-06T13:18:57.317Z,991.74
2018-09-06T13:20:04.224Z,991.76
2018-09-06T13:21:11.126Z,991.75
2018-09-06T13:22:18.039Z,991.77
2018-09-06T13:23:24.962Z,991.74
2018-09-06T13:24:31.875Z,991.75
2018-09-06T13:25:38.770Z,991.75
2018-09-06T13:26:45.694Z,991.77
2018-09-06T13:27:52.568Z,991.77
2018-09-06T13:28:59.466Z,991.74
2018-09-06T13:30:06.358Z,991.71
2018-09-06T13:31:12.747Z,991.68
2018-09-06T13:32:20.124Z,991.74
2018-09-06T13:33:27.002Z,991.74
2018-09-06T13:34:33.893Z,991.70
2018-09-06T13:35:40.829Z,991.73
2018-09-06T13:36:47.628Z,991.71
2018-09-06T13:37:54.478Z,991.70
2018-09-06T13:39:01.363Z,991.70
2018-09-06T13:40:09.278Z,991.69
2018-09-06T13:41:15.080Z,991.68
2018-09-06T13:42:21.923Z,991.71
2018-09-06T13:43:29.777Z,991.69
2018-09-06T13:44:36.625Z,991.69
2018-09-06T13:45:42.446Z,991.69
2018-09-06T13:46:49.289Z,991.75
2018-09-06T13:47:56.126Z,991.75
2018-09-06T13:49:02.972Z,991.68
2018-09-06T13:50:09.801Z,991.71
2018-09-06T13:51:16.628Z,991.66
2018-09-06T13:52:23.460Z,991.69
2018-09-06T13:53:31.286Z,991.68
2018-09-06T13:54:37.117Z,991.67
2018-09-06T13:55:43.930Z,991.67
2018-09-06T13:56:50.764Z,991.68